createdAt,value
2022-12-09T00:00:12.868Z,13.63
2022-12-09T00:02:41.512Z,11.90
2022-12-09T00:05:10.865Z,11.00
2022-12-09T00:07:39.443Z,9.90
2022-12-09T00:10:11.264Z,8.10
2022-12-09T00:12:39.735Z,8.40
2022-12-09T00:15:08.863Z,8.10
2022-12-09T00:17:37.236Z,6.50
2022-12-09T00:20:07.608Z,7.90
2022-12-09T00:22:36.375Z,7.13
2022-12-09T00:25:04.927Z,7.00
2022-12-09T00:27:34.795Z,7.70
2022-12-09T00:30:03.121Z,7.30
2022-12-09T00:32:31.534Z,7.00
2022-12-09T00:35:00.326Z,7.03
2022-12-09T00:37:29.712Z,7.07
2022-12-09T00:40:00.138Z,6.20
2022-12-09T00:42:28.619Z,6.80
2022-12-09T00:44:58.246Z,7.07
2022-12-09T00:47:26.635Z,6.30
2022-12-09T00:49:55.074Z,6.97
2022-12-09T00:52:23.799Z,5.90
2022-12-09T00:54:52.296Z,6.23
2022-12-09T00:57:20.511Z,5.80
2022-12-09T00:59:48.852Z,6.73
2022-12-09T01:02:18.464Z,6.70
2022-12-09T01:04:47.138Z,6.40
2022-12-09T01:07:15.640Z,6.63
2022-12-09T01:09:44.498Z,5.97
2022-12-09T01:12:12.829Z,5.57
2022-12-09T01:14:41.250Z,5.77
2022-12-09T01:17:09.578Z,6.37
2022-12-09T01:19:41.355Z,6.80
2022-12-09T01:22:09.662Z,6.00
2022-12-09T01:24:38.007Z,8.23
2022-12-09T01:27:06.145Z,6.10
2022-12-09T01:29:34.527Z,5.93
2022-12-09T01:32:02.827Z,7.17
2022-12-09T01:34:31.019Z,6.57
2022-12-09T01:37:03.705Z,6.70
2022-12-09T01:39:31.975Z,7.47
2022-12-09T01:42:03.273Z,6.23
2022-12-09T01:44:33.566Z,7.47
2022-12-09T01:47:03.925Z,6.87
2022-12-09T01:49:41.488Z,6.60
2022-12-09T01:52:16.977Z,6.53
2022-12-09T01:54:47.035Z,7.20
2022-12-09T01:57:16.510Z,6.80
2022-12-09T01:59:45.938Z,6.20
2022-12-09T02:02:18.159Z,5.70
2022-12-09T02:04:50.884Z,6.43
2022-12-09T02:07:22.203Z,6.60
2022-12-09T02:09:53.496Z,6.20
2022-12-09T02:12:38.367Z,5.73
2022-12-09T02:15:13.482Z,7.57
2022-12-09T02:17:45.617Z,7.50
2022-12-09T02:20:20.601Z,6.23
2022-12-09T02:23:01.302Z,6.20
2022-12-09T02:25:36.478Z,6.80
2022-12-09T02:28:31.011Z,7.00
2022-12-09T02:31:11.453Z,4.63
2022-12-09T02:34:03.325Z,5.87
2022-12-09T02:36:35.738Z,5.20
2022-12-09T02:39:07.542Z,6.57
2022-12-09T02:41:37.277Z,5.23
2022-12-09T02:44:10.712Z,5.63
2022-12-09T02:46:41.119Z,5.23
2022-12-09T02:49:14.194Z,4.87
2022-12-09T02:51:45.186Z,4.97
2022-12-09T02:54:19.581Z,5.83
2022-12-09T02:56:57.081Z,4.97
2022-12-09T02:59:27.816Z,5.70
2022-12-09T03:02:18.657Z,5.17
2022-12-09T03:04:59.877Z,6.80
2022-12-09T03:07:36.503Z,5.70
2022-12-09T03:10:11.804Z,5.83
2022-12-09T03:12:42.438Z,7.50
2022-12-09T03:15:16.302Z,5.50
2022-12-09T03:17:46.816Z,5.00
2022-12-09T03:20:23.978Z,5.67
2022-12-09T03:22:58.374Z,5.33
2022-12-09T03:25:32.385Z,5.10
2022-12-09T03:28:05.477Z,5.97
2022-12-09T03:30:38.395Z,5.90
2022-12-09T03:33:06.922Z,5.10
2022-12-09T03:35:40.738Z,5.30
2022-12-09T03:38:16.307Z,5.87
2022-12-09T03:40:45.991Z,4.77
2022-12-09T03:43:17.484Z,4.93
2022-12-09T03:45:45.871Z,5.90
2022-12-09T03:48:14.611Z,5.50
2022-12-09T03:50:53.960Z,5.77
2022-12-09T03:53:27.647Z,6.27
2022-12-09T03:56:03.167Z,5.50
2022-12-09T03:58:34.646Z,5.10
2022-12-09T04:01:04.317Z,4.77
2022-12-09T04:03:34.722Z,5.27
2022-12-09T04:06:04.655Z,5.17
2022-12-09T04:08:33.009Z,7.90
2022-12-09T04:11:01.508Z,8.20
2022-12-09T04:13:30.003Z,7.57
2022-12-09T04:15:58.125Z,6.33
2022-12-09T04:18:26.396Z,7.20
2022-12-09T04:20:54.622Z,6.43
2022-12-09T04:23:24.477Z,6.20
2022-12-09T04:25:52.975Z,6.40
2022-12-09T04:28:21.187Z,6.60
2022-12-09T04:30:49.769Z,5.50
2022-12-09T04:33:18.061Z,6.10
2022-12-09T04:35:46.843Z,6.07
2022-12-09T04:38:15.086Z,5.40
2022-12-09T04:40:44.834Z,5.90
2022-12-09T04:43:13.339Z,5.33
2022-12-09T04:45:42.122Z,5.33
2022-12-09T04:48:10.985Z,6.13
2022-12-09T04:50:42.394Z,5.40
2022-12-09T04:53:11.054Z,7.10
2022-12-09T04:55:39.524Z,5.60
2022-12-09T04:58:09.145Z,6.23
2022-12-09T05:00:37.289Z,5.87
2022-12-09T05:03:05.909Z,5.80
2022-12-09T05:05:34.277Z,8.17
2022-12-09T05:08:03.133Z,7.40
2022-12-09T05:10:31.659Z,6.87
2022-12-09T05:13:00.297Z,6.30
2022-12-09T05:15:30.418Z,6.53
2022-12-09T05:17:59.918Z,5.10
2022-12-09T05:20:29.855Z,5.47
2022-12-09T05:22:58.603Z,5.93
2022-12-09T05:25:27.633Z,6.80
2022-12-09T05:27:56.147Z,5.97
2022-12-09T05:30:25.088Z,5.90
2022-12-09T05:32:54.811Z,5.53
2022-12-09T05:35:23.735Z,5.30
2022-12-09T05:37:52.228Z,5.90
2022-12-09T05:40:21.167Z,6.07
2022-12-09T05:42:49.648Z,7.17
2022-12-09T05:45:18.514Z,7.00
2022-12-09T05:47:47.093Z,6.80
2022-12-09T05:50:17.434Z,6.10
2022-12-09T05:52:46.158Z,6.13
2022-12-09T05:55:14.844Z,6.03
2022-12-09T05:57:43.258Z,6.10
2022-12-09T06:00:14.556Z,5.43
2022-12-09T06:02:43.548Z,6.10
2022-12-09T06:05:12.874Z,6.10
2022-12-09T06:07:42.961Z,6.40
2022-12-09T06:10:12.165Z,5.40
2022-12-09T06:12:41.187Z,5.30
2022-12-09T06:15:12.010Z,6.50
2022-12-09T06:17:42.567Z,6.30
2022-12-09T06:20:11.931Z,5.90
2022-12-09T06:22:42.482Z,6.13
2022-12-09T06:25:12.456Z,6.00
2022-12-09T06:27:41.133Z,6.83
2022-12-09T06:30:11.374Z,5.63
2022-12-09T06:32:40.864Z,5.60
2022-12-09T06:35:10.420Z,6.10
2022-12-09T06:37:39.282Z,6.37
2022-12-09T06:40:11.121Z,6.10
2022-12-09T06:42:39.578Z,6.33
2022-12-09T06:45:09.812Z,6.63
2022-12-09T06:47:39.383Z,6.17
2022-12-09T06:50:10.869Z,7.00
2022-12-09T06:52:42.200Z,6.90
2022-12-09T06:55:13.218Z,7.43
2022-12-09T06:57:42.036Z,19.27
2022-12-09T07:00:33.684Z,12.47
2022-12-09T07:03:02.799Z,8.50
2022-12-09T07:05:36.208Z,7.47
2022-12-09T07:08:10.236Z,6.97
2022-12-09T07:10:49.099Z,7.60
2022-12-09T07:13:21.189Z,7.53
2022-12-09T07:15:53.081Z,5.93
2022-12-09T07:18:21.558Z,8.50
2022-12-09T07:20:50.072Z,6.93
2022-12-09T07:23:18.381Z,7.10
2022-12-09T07:25:57.259Z,7.90
2022-12-09T07:28:28.137Z,10.23
2022-12-09T07:30:56.846Z,9.43
2022-12-09T07:33:25.814Z,8.80
2022-12-09T07:35:56.340Z,8.63
2022-12-09T07:38:26.338Z,7.60
2022-12-09T07:40:56.073Z,7.37
2022-12-09T07:43:24.376Z,7.63
2022-12-09T07:46:00.282Z,7.57
2022-12-09T07:48:29.043Z,7.67
2022-12-09T07:51:01.493Z,7.00
2022-12-09T07:53:30.902Z,7.40
2022-12-09T07:56:03.530Z,6.77
2022-12-09T07:58:32.822Z,8.43
2022-12-09T08:01:08.252Z,9.07
2022-12-09T08:03:36.865Z,8.37
2022-12-09T08:06:14.466Z,8.97
2022-12-09T08:08:44.269Z,10.47
2022-12-09T08:11:33.403Z,11.23
2022-12-09T08:14:13.372Z,11.07
2022-12-09T08:17:05.930Z,11.93
2022-12-09T08:19:58.174Z,11.67
2022-12-09T08:22:43.572Z,10.10
2022-12-09T08:25:15.189Z,11.47
2022-12-09T08:27:54.388Z,11.63
2022-12-09T08:30:26.197Z,10.90
2022-12-09T08:32:54.816Z,11.50
2022-12-09T08:35:25.110Z,10.60
2022-12-09T08:37:54.010Z,10.53
2022-12-09T08:40:22.443Z,10.27
2022-12-09T08:42:53.074Z,10.07
2022-12-09T08:45:23.631Z,10.30
2022-12-09T08:47:52.498Z,10.77
2022-12-09T08:50:23.344Z,12.00
2022-12-09T08:52:51.966Z,11.27
2022-12-09T08:55:20.488Z,11.10
2022-12-09T08:57:49.515Z,12.83
2022-12-09T09:00:23.282Z,12.23
2022-12-09T09:02:52.143Z,12.33
2022-12-09T09:05:21.038Z,13.40
2022-12-09T09:07:49.665Z,10.20
2022-12-09T09:10:21.786Z,13.50
2022-12-09T09:12:54.368Z,11.87
2022-12-09T09:15:25.177Z,12.03
2022-12-09T09:17:54.341Z,11.10
2022-12-09T09:20:23.271Z,12.80
2022-12-09T09:22:51.896Z,11.50
2022-12-09T09:25:21.831Z,12.73
2022-12-09T09:27:57.801Z,13.17
2022-12-09T09:30:27.995Z,13.70
2022-12-09T09:32:56.925Z,13.73
2022-12-09T09:35:25.517Z,12.77
2022-12-09T09:37:54.981Z,13.07
2022-12-09T09:40:24.217Z,13.33
2022-12-09T09:42:55.075Z,14.43
2022-12-09T09:45:25.598Z,15.07
2022-12-09T09:48:02.973Z,14.63
2022-12-09T09:50:37.724Z,14.90
2022-12-09T09:53:18.315Z,12.80
2022-12-09T09:55:54.009Z,13.10
2022-12-09T09:58:35.149Z,12.60
2022-12-09T10:01:09.809Z,13.40
2022-12-09T10:03:54.127Z,12.20
2022-12-09T10:06:39.582Z,15.53
2022-12-09T10:09:16.993Z,13.40
2022-12-09T10:12:00.543Z,14.23
2022-12-09T10:14:42.051Z,12.40
2022-12-09T10:17:26.124Z,12.70
2022-12-09T10:20:03.744Z,13.87
2022-12-09T10:22:50.700Z,12.70
2022-12-09T10:25:34.521Z,11.83
2022-12-09T10:28:08.177Z,12.17
2022-12-09T10:30:43.927Z,13.67
2022-12-09T10:33:19.017Z,14.07
2022-12-09T10:35:50.383Z,12.40
2022-12-09T10:38:27.533Z,12.07
2022-12-09T10:41:08.649Z,13.00
2022-12-09T10:43:44.125Z,13.30
2022-12-09T10:46:24.359Z,12.77
2022-12-09T10:49:01.587Z,13.03
2022-12-09T10:51:37.404Z,12.97
2022-12-09T10:54:20.962Z,13.77
2022-12-09T10:57:09.656Z,13.73
2022-12-09T10:59:39.565Z,14.97
2022-12-09T11:02:22.975Z,15.40
2022-12-09T11:04:52.499Z,13.50
2022-12-09T11:07:26.054Z,13.10
2022-12-09T11:10:17.011Z,12.67
2022-12-09T11:12:46.542Z,14.00
2022-12-09T11:15:29.760Z,12.30
2022-12-09T11:18:02.310Z,13.87
2022-12-09T11:20:33.563Z,14.27
2022-12-09T11:23:11.493Z,13.30
2022-12-09T11:25:53.177Z,14.70
2022-12-09T11:28:28.386Z,13.40
2022-12-09T11:33:52.099Z,14.50
2022-12-09T11:36:25.590Z,14.70
2022-12-09T11:39:19.412Z,13.43
2022-12-09T11:42:12.990Z,14.00
2022-12-09T11:44:53.173Z,17.50
2022-12-09T11:47:50.484Z,14.40
2022-12-09T11:50:25.137Z,16.50
2022-12-09T11:53:12.232Z,16.33
2022-12-09T11:55:48.091Z,13.97
2022-12-09T11:58:21.403Z,15.33
2022-12-09T12:00:57.265Z,13.80
2022-12-09T12:03:32.911Z,16.60
2022-12-09T12:06:04.132Z,15.23
2022-12-09T12:08:43.437Z,21.63
2022-12-09T12:11:17.444Z,16.93
2022-12-09T12:13:48.566Z,14.93
2022-12-09T12:16:24.037Z,14.93
2022-12-09T12:18:59.600Z,17.10
2022-12-09T12:21:50.439Z,14.53
2022-12-09T12:25:03.064Z,16.73
2022-12-09T12:27:52.175Z,14.93
2022-12-09T12:30:25.170Z,14.03
2022-12-09T12:33:59.707Z,15.30
2022-12-09T12:36:13.915Z,14.70
2022-12-09T12:39:02.280Z,15.70
2022-12-09T12:41:40.403Z,17.33
2022-12-09T12:44:45.987Z,16.33
2022-12-09T12:47:23.139Z,18.47
2022-12-09T12:50:21.927Z,15.00
2022-12-09T12:53:00.764Z,15.87
2022-12-09T12:55:48.988Z,15.63
2022-12-09T12:58:34.491Z,17.03
2022-12-09T13:01:09.639Z,16.10
2022-12-09T13:03:51.918Z,16.27
2022-12-09T13:06:25.434Z,15.90
2022-12-09T13:09:03.038Z,17.63
2022-12-09T13:11:50.149Z,17.50
2022-12-09T13:14:22.557Z,18.80
2022-12-09T13:16:52.945Z,18.30
2022-12-09T13:19:28.175Z,18.33
2022-12-09T13:21:57.060Z,18.27
2022-12-09T13:24:34.766Z,18.90
2022-12-09T13:27:07.447Z,19.47
2022-12-09T13:29:43.182Z,21.10
2022-12-09T13:32:36.639Z,20.60
2022-12-09T13:35:14.870Z,17.47
2022-12-09T13:37:59.875Z,17.80
2022-12-09T13:40:35.186Z,18.50
2022-12-09T13:43:15.629Z,19.97
2022-12-09T13:45:57.029Z,31.37
2022-12-09T13:48:50.916Z,18.90
2022-12-09T13:51:20.216Z,18.90
2022-12-09T13:53:54.608Z,17.47
2022-12-09T13:56:29.332Z,19.00
2022-12-09T13:59:42.375Z,19.47
2022-12-09T14:02:23.964Z,20.83
2022-12-09T14:05:05.465Z,21.53
2022-12-09T14:07:41.835Z,23.37
2022-12-09T14:10:43.258Z,21.80
2022-12-09T14:13:28.560Z,22.30
2022-12-09T14:16:17.258Z,19.10
2022-12-09T14:18:46.804Z,22.60
2022-12-09T14:21:33.571Z,21.23
2022-12-09T14:24:32.628Z,22.00
2022-12-09T14:27:18.340Z,21.47
2022-12-09T14:29:54.188Z,24.43
2022-12-09T14:32:26.318Z,23.70
2022-12-09T14:35:17.557Z,22.63
2022-12-09T14:38:08.062Z,19.93
2022-12-09T14:40:52.409Z,21.80
2022-12-09T14:44:04.459Z,23.40
2022-12-09T14:46:35.731Z,22.77
2022-12-09T14:49:13.676Z,21.90
2022-12-09T14:51:48.121Z,20.83
2022-12-09T14:54:21.484Z,20.80
2022-12-09T14:56:52.673Z,21.70
2022-12-09T14:59:25.360Z,22.00
2022-12-09T15:01:57.185Z,25.40
2022-12-09T15:04:34.363Z,22.57
2022-12-09T15:07:15.794Z,22.13
2022-12-09T15:09:54.395Z,22.40
2022-12-09T15:12:30.496Z,22.47
2022-12-09T15:15:24.749Z,22.60
2022-12-09T15:17:59.165Z,23.40
2022-12-09T15:20:31.365Z,21.73
2022-12-09T15:23:03.092Z,22.67
2022-12-09T15:25:31.490Z,21.90
2022-12-09T15:28:03.659Z,21.10
2022-12-09T15:30:36.301Z,23.73
2022-12-09T15:33:05.405Z,22.27
2022-12-09T15:35:34.801Z,24.03
2022-12-09T15:38:06.608Z,25.47
2022-12-09T15:40:37.836Z,25.00
2022-12-09T15:43:10.439Z,21.50
2022-12-09T15:45:44.107Z,23.67
2022-12-09T15:48:19.071Z,23.87
2022-12-09T15:50:54.568Z,21.20
2022-12-09T15:53:29.105Z,20.00
2022-12-09T15:56:02.697Z,43.20
2022-12-09T15:58:35.101Z,25.30
2022-12-09T16:01:04.785Z,21.37
2022-12-09T16:03:35.232Z,22.57
2022-12-09T16:06:06.795Z,21.10
2022-12-09T16:08:38.720Z,23.43
2022-12-09T16:11:07.830Z,23.63
2022-12-09T16:13:36.315Z,24.23
2022-12-09T16:16:27.491Z,23.23
2022-12-09T16:18:56.728Z,21.77
2022-12-09T16:21:29.438Z,22.90
2022-12-09T16:24:06.811Z,21.10
2022-12-09T16:26:38.675Z,20.47
2022-12-09T16:29:16.538Z,18.93
2022-12-09T16:31:46.758Z,20.50
2022-12-09T16:34:21.839Z,21.67
2022-12-09T16:36:56.327Z,25.07
2022-12-09T16:39:35.389Z,27.40
2022-12-09T16:42:03.743Z,26.17
2022-12-09T16:44:38.270Z,26.30
2022-12-09T16:47:17.401Z,23.83
2022-12-09T16:49:48.365Z,24.30
2022-12-09T16:52:19.386Z,23.73
2022-12-09T16:54:49.791Z,21.80
2022-12-09T16:57:20.586Z,21.00
2022-12-09T16:59:49.489Z,27.67
2022-12-09T17:02:27.351Z,28.43
2022-12-09T17:04:55.594Z,27.60
2022-12-09T17:07:23.758Z,26.80
2022-12-09T17:09:52.059Z,25.30
2022-12-09T17:12:20.384Z,23.90
2022-12-09T17:14:48.948Z,23.37
2022-12-09T17:17:17.102Z,21.03
2022-12-09T17:19:46.642Z,22.47
2022-12-09T17:22:15.214Z,24.60
2022-12-09T17:24:43.578Z,22.60
2022-12-09T17:27:11.725Z,24.20
2022-12-09T17:29:40.366Z,18.57
2022-12-09T17:32:08.892Z,21.90
2022-12-09T17:34:37.263Z,22.37
2022-12-09T17:37:07.142Z,22.57
2022-12-09T17:39:35.549Z,23.57
2022-12-09T17:42:03.808Z,23.20
2022-12-09T17:44:31.949Z,25.10
2022-12-09T17:47:00.297Z,22.80
2022-12-09T17:49:28.544Z,25.57
2022-12-09T17:51:56.726Z,29.83
2022-12-09T17:54:26.298Z,27.70
2022-12-09T17:56:54.606Z,23.60
2022-12-09T17:59:22.743Z,22.10
2022-12-09T18:01:50.947Z,20.67
2022-12-09T18:04:19.090Z,21.40
2022-12-09T18:06:47.794Z,22.00
2022-12-09T18:09:19.777Z,20.80
2022-12-09T18:11:51.583Z,21.63
2022-12-09T18:14:21.642Z,21.70
2022-12-09T18:16:51.201Z,20.77
2022-12-09T18:19:23.303Z,19.50
2022-12-09T18:21:51.729Z,63.17
2022-12-09T18:24:20.002Z,29.53
2022-12-09T18:26:50.403Z,28.90
2022-12-09T18:29:18.591Z,25.97
2022-12-09T18:31:50.451Z,26.40
2022-12-09T18:34:21.065Z,24.57
2022-12-09T18:36:49.209Z,24.10
2022-12-09T18:39:17.649Z,24.77
2022-12-09T18:41:46.550Z,20.67
2022-12-09T18:44:17.540Z,21.20
2022-12-09T18:46:48.705Z,20.90
2022-12-09T18:49:19.616Z,20.17
2022-12-09T18:51:49.920Z,23.90
2022-12-09T18:54:22.721Z,20.90
2022-12-09T18:56:51.362Z,20.03
2022-12-09T18:59:22.245Z,23.10
2022-12-09T19:01:51.206Z,20.10
2022-12-09T19:04:23.832Z,22.60
2022-12-09T19:06:54.925Z,22.77
2022-12-09T19:09:25.928Z,20.83
2022-12-09T19:11:54.706Z,21.77
2022-12-09T19:14:24.877Z,21.60
2022-12-09T19:16:54.214Z,23.17
2022-12-09T19:19:25.150Z,23.70
2022-12-09T19:21:54.194Z,22.47
2022-12-09T19:24:24.764Z,27.57
2022-12-09T19:26:55.566Z,34.27
2022-12-09T19:29:28.283Z,41.57
2022-12-09T19:31:58.205Z,32.83
2022-12-09T19:34:28.714Z,28.40
2022-12-09T19:36:58.958Z,31.13
2022-12-09T19:39:31.258Z,27.20
2022-12-09T19:42:00.078Z,28.30
2022-12-09T19:45:00.763Z,25.63
2022-12-09T19:47:18.011Z,70.67
2022-12-09T19:49:46.228Z,34.43
2022-12-09T19:52:14.501Z,23.37
2022-12-09T19:54:42.806Z,23.10
2022-12-09T19:57:11.005Z,23.03
2022-12-09T19:59:40.710Z,22.33
2022-12-09T20:02:11.912Z,21.60
2022-12-09T20:04:49.633Z,20.10
2022-12-09T20:07:19.066Z,24.33
2022-12-09T20:09:47.504Z,23.50
2022-12-09T20:12:16.208Z,22.53
2022-12-09T20:14:45.831Z,24.63
2022-12-09T20:17:14.081Z,27.60
2022-12-09T20:19:42.302Z,23.10
2022-12-09T20:22:10.457Z,26.70
2022-12-09T20:24:38.578Z,21.77
2022-12-09T20:27:06.761Z,21.53
2022-12-09T20:29:37.915Z,21.67
2022-12-09T20:32:08.731Z,17.63
2022-12-09T20:34:37.389Z,19.30
2022-12-09T20:37:05.882Z,18.10
2022-12-09T20:39:34.233Z,19.10
2022-12-09T20:42:02.538Z,20.33
2022-12-09T20:44:32.280Z,18.80
2022-12-09T20:47:00.529Z,20.77
2022-12-09T20:49:30.291Z,20.80
2022-12-09T20:51:58.742Z,20.07
2022-12-09T20:54:27.139Z,21.87
2022-12-09T20:56:55.603Z,19.90
2022-12-09T20:59:24.031Z,21.27
2022-12-09T21:01:54.120Z,21.03
2022-12-09T21:04:22.407Z,19.63
2022-12-09T21:06:51.971Z,20.93
2022-12-09T21:09:22.854Z,19.83
2022-12-09T21:11:51.541Z,19.90
2022-12-09T21:14:20.722Z,17.73
2022-12-09T21:16:51.102Z,15.20
2022-12-09T21:19:24.566Z,19.63
2022-12-09T21:21:54.741Z,17.23
2022-12-09T21:24:24.564Z,18.60
2022-12-09T21:26:55.282Z,20.07
2022-12-09T21:29:29.951Z,24.93
2022-12-09T21:32:01.328Z,34.10
2022-12-09T21:34:29.723Z,19.30
2022-12-09T21:36:59.637Z,16.43
2022-12-09T21:39:29.208Z,14.93
2022-12-09T21:41:57.422Z,16.80
2022-12-09T21:44:27.009Z,15.37
2022-12-09T21:46:55.215Z,16.40
2022-12-09T21:49:23.776Z,18.80
2022-12-09T21:51:51.954Z,16.80
2022-12-09T21:54:21.612Z,17.60
2022-12-09T21:56:49.958Z,14.00
2022-12-09T21:59:18.179Z,15.33
2022-12-09T22:01:46.421Z,18.13
2022-12-09T22:04:17.157Z,14.33
2022-12-09T22:06:47.545Z,14.90
2022-12-09T22:09:17.512Z,15.50
2022-12-09T22:11:47.108Z,14.23
2022-12-09T22:14:15.248Z,14.40
2022-12-09T22:16:46.813Z,14.97
2022-12-09T22:19:18.212Z,15.60
2022-12-09T22:21:46.871Z,13.73
2022-12-09T22:24:16.998Z,14.90
2022-12-09T22:26:47.184Z,15.17
2022-12-09T22:29:18.027Z,16.00
2022-12-09T22:31:47.424Z,14.67
2022-12-09T22:34:18.347Z,14.70
2022-12-09T22:36:48.037Z,14.50
2022-12-09T22:39:18.889Z,15.30
2022-12-09T22:41:49.173Z,14.57
2022-12-09T22:44:20.739Z,15.27
2022-12-09T22:46:49.804Z,15.13
2022-12-09T22:49:18.766Z,15.40
2022-12-09T22:51:48.807Z,14.30
2022-12-09T22:54:17.288Z,13.90
2022-12-09T22:56:47.530Z,14.00
2022-12-09T22:59:18.013Z,14.23
2022-12-09T23:01:49.384Z,14.27
2022-12-09T23:04:21.668Z,13.30
2022-12-09T23:06:51.264Z,15.03
2022-12-09T23:09:24.068Z,15.50
2022-12-09T23:11:53.267Z,14.30
2022-12-09T23:14:22.866Z,16.77
2022-12-09T23:16:51.080Z,16.23
2022-12-09T23:19:19.355Z,17.50
2022-12-09T23:21:47.719Z,16.20
2022-12-09T23:24:24.332Z,16.83
2022-12-09T23:26:56.659Z,16.43
2022-12-09T23:29:26.536Z,14.57
2022-12-09T23:31:54.766Z,14.83
2022-12-09T23:34:23.552Z,18.30
2022-12-09T23:36:51.763Z,18.03
2022-12-09T23:39:20.451Z,18.77
2022-12-09T23:41:50.126Z,16.17
2022-12-09T23:44:19.813Z,16.80
2022-12-09T23:46:50.282Z,15.73
2022-12-09T23:49:18.973Z,16.43
2022-12-09T23:51:47.901Z,16.23
2022-12-09T23:54:18.743Z,14.00
2022-12-09T23:56:50.015Z,15.73
2022-12-09T23:59:21.649Z,14.10
